Time;durP1;ratioP1;P1;durP2;ratioP2;P2;SDS_P1;SDS_P2;PMS_P1;PMS_P2;Temp;Humidity;BMP_temperature;BMP_pressure;BME280_temperature;BME280_humidity;BME280_pressure;Samples;Min_cycle;Max_cycle;Signal;HPM_P1;HPM_P2
2022/04/29 00:01:10;;;;;;;7.60;5.30;;;;;;;9.61;90.92;101830.08;107235;1251;63912;-72
2022/04/29 00:03:39;;;;;;;6.90;5.10;;;;;;;9.58;91.23;101827.23;107192;1251;60965;-73
2022/04/29 00:06:09;;;;;;;7.20;5.60;;;;;;;9.53;91.86;101827.00;107201;1251;73295;-71
2022/04/29 00:08:37;;;;;;;7.30;5.00;;;;;;;9.57;92.01;101828.20;107193;1251;73134;-72
2022/04/29 00:11:06;;;;;;;8.40;5.60;;;;;;;9.59;91.33;101827.75;107146;1251;71484;-73
2022/04/29 00:13:35;;;;;;;8.20;5.40;;;;;;;9.55;91.97;101827.21;107225;1251;72051;-72
2022/04/29 00:16:05;;;;;;;8.20;5.90;;;;;;;9.60;91.60;101820.38;107205;1251;59594;-71
2022/04/29 00:18:34;;;;;;;7.70;5.80;;;;;;;9.64;91.53;101815.83;107135;1253;59089;-72
2022/04/29 00:21:04;;;;;;;7.10;4.90;;;;;;;9.67;91.40;101814.80;107283;1251;70940;-72
2022/04/29 00:23:33;;;;;;;7.10;5.50;;;;;;;9.68;90.69;101814.22;107605;1250;71234;-73
2022/04/29 00:26:02;;;;;;;6.30;5.00;;;;;;;9.68;90.58;101818.38;107779;1251;68745;-74
2022/04/29 00:28:31;;;;;;;6.50;5.30;;;;;;;9.67;90.62;101817.38;107875;1251;71627;-73
2022/04/29 00:31:00;;;;;;;7.00;5.20;;;;;;;9.67;91.22;101817.42;107429;1250;60599;-74
2022/04/29 00:33:29;;;;;;;6.80;5.40;;;;;;;9.69;90.88;101819.02;107264;1251;59644;-73
2022/04/29 00:35:58;;;;;;;8.10;5.70;;;;;;;9.71;90.64;101821.04;107262;1251;73733;-72
2022/04/29 00:38:27;;;;;;;8.60;5.60;;;;;;;9.71;90.74;101822.27;107291;1251;72640;-71
2022/04/29 00:40:55;;;;;;;8.10;5.70;;;;;;;9.72;90.93;101830.58;107194;1251;68700;-72
2022/04/29 00:43:25;;;;;;;7.90;5.70;;;;;;;9.72;91.06;101831.80;107099;1251;72801;-72
2022/04/29 00:45:53;;;;;;;8.90;6.30;;;;;;;9.69;91.20;101832.60;107054;1251;63028;-71
2022/04/29 00:48:23;;;;;;;6.40;5.10;;;;;;;9.71;91.71;101834.10;107189;1251;61675;-73
2022/04/29 00:50:51;;;;;;;7.70;5.60;;;;;;;9.74;91.10;101837.42;107124;1252;73964;-73
2022/04/29 00:53:23;;;;;;;8.20;5.40;;;;;;;9.76;91.27;101836.79;107310;1251;69549;-73
2022/04/29 00:55:54;;;;;;;7.00;5.30;;;;;;;9.79;90.86;101838.17;107163;1251;70581;-72
2022/04/29 00:58:43;;;;;;;8.00;5.30;;;;;;;9.78;90.84;101840.83;107057;1251;72738;-71
2022/04/29 01:01:14;;;;;;;7.70;5.50;;;;;;;9.80;90.39;101837.63;106916;1251;60489;-71
2022/04/29 01:03:44;;;;;;;8.40;6.00;;;;;;;9.80;90.33;101833.06;106897;1251;58826;-71
2022/04/29 01:06:13;;;;;;;9.00;5.30;;;;;;;9.80;90.85;101833.59;107043;1251;74039;-72
2022/04/29 01:08:41;;;;;;;8.40;5.30;;;;;;;9.80;90.40;101831.69;107113;1254;70994;-72
2022/04/29 01:11:11;;;;;;;7.10;6.10;;;;;;;9.80;90.36;101830.29;107396;1251;69905;-73
2022/04/29 01:13:40;;;;;;;7.90;5.80;;;;;;;9.80;90.84;101829.92;107304;1251;71420;-72
2022/04/29 01:16:09;;;;;;;8.90;5.70;;;;;;;9.79;90.55;101828.96;107225;1251;60406;-72
2022/04/29 01:18:39;;;;;;;7.70;5.80;;;;;;;9.79;90.59;101823.23;107063;1253;60520;-72
2022/04/29 01:21:07;;;;;;;8.00;5.50;;;;;;;9.76;90.72;101819.88;107027;1251;72888;-70
2022/04/29 01:23:36;;;;;;;8.40;5.70;;;;;;;9.78;90.58;101816.34;106556;1250;764930;-72
2022/04/29 01:26:05;;;;;;;6.80;5.60;;;;;;;9.77;90.10;101814.28;107032;1251;69637;-72
2022/04/29 01:28:36;;;;;;;7.70;5.60;;;;;;;9.71;90.39;101815.10;107131;1250;71776;-72
2022/04/29 01:31:06;;;;;;;9.10;5.90;;;;;;;9.67;91.46;101814.98;106957;1251;60678;-72
2022/04/29 01:33:35;;;;;;;9.20;5.70;;;;;;;9.70;90.59;101814.32;107020;1251;60513;-70
2022/04/29 01:36:06;;;;;;;10.00;6.30;;;;;;;9.66;90.97;101812.75;107209;1251;73281;-73
2022/04/29 01:38:38;;;;;;;8.20;6.20;;;;;;;9.70;90.48;101809.96;107518;1250;69998;-73
2022/04/29 01:41:07;;;;;;;7.90;5.50;;;;;;;9.66;91.09;101809.83;107273;1251;69856;-74
2022/04/29 01:43:40;;;;;;;7.00;5.70;;;;;;;9.67;91.15;101804.20;107169;1250;74352;-75
2022/04/29 01:46:12;;;;;;;7.90;6.00;;;;;;;9.65;91.38;101804.80;107133;1250;62599;-76
2022/04/29 01:48:44;;;;;;;9.90;5.90;;;;;;;9.69;91.22;101802.89;107113;1251;61145;-73
2022/04/29 01:51:15;;;;;;;7.20;5.60;;;;;;;9.71;90.76;101805.20;107073;1251;72384;-74
2022/04/29 01:53:45;;;;;;;7.90;5.90;;;;;;;9.69;90.99;101803.73;107110;1251;70702;-76
2022/04/29 01:56:14;;;;;;;9.20;5.90;;;;;;;9.68;91.01;101800.67;107254;1251;71046;-73
2022/04/29 01:58:43;;;;;;;7.80;5.40;;;;;;;9.68;90.78;101796.48;107102;1251;73219;-76
2022/04/29 02:01:13;;;;;;;9.00;6.00;;;;;;;9.69;91.38;101799.54;107291;1251;62981;-74
2022/04/29 02:03:42;;;;;;;8.00;5.60;;;;;;;9.72;90.81;101795.76;107207;1251;60222;-71
2022/04/29 02:06:12;;;;;;;8.80;6.30;;;;;;;9.71;90.57;101795.48;107247;1251;74608;-72
2022/04/29 02:08:42;;;;;;;7.70;5.30;;;;;;;9.71;90.71;101795.14;107280;1250;70226;-75
2022/04/29 02:11:10;;;;;;;8.70;6.30;;;;;;;9.71;90.33;101792.69;107263;1251;70615;-76
2022/04/29 02:13:40;;;;;;;10.90;6.40;;;;;;;9.66;91.12;101796.59;107223;1250;73680;-77
2022/04/29 02:16:18;;;;;;;7.10;5.50;;;;;;;9.67;90.58;101794.98;107186;1251;61721;-75
2022/04/29 02:18:47;;;;;;;8.20;5.70;;;;;;;9.68;90.45;101794.71;107225;1250;58922;-75
2022/04/29 02:21:16;;;;;;;9.20;6.00;;;;;;;9.62;91.37;101797.50;107156;1251;72243;-73
2022/04/29 02:23:45;;;;;;;7.40;5.70;;;;;;;9.65;90.42;101799.62;107370;1251;73088;-73
2022/04/29 02:26:13;;;;;;;8.40;6.20;;;;;;;9.64;90.55;101798.95;107316;1251;70956;-72
2022/04/29 02:28:42;;;;;;;7.50;5.90;;;;;;;9.61;90.75;101798.42;107147;1251;71930;-73
2022/04/29 02:31:11;;;;;;;7.60;5.30;;;;;;;9.61;90.80;101798.23;107159;1253;61171;-74
2022/04/29 02:33:40;;;;;;;7.00;5.20;;;;;;;9.62;90.80;101803.92;107226;1251;59766;-74
2022/04/29 02:36:09;;;;;;;8.50;6.40;;;;;;;9.61;90.70;101803.26;107316;1251;70946;-73
2022/04/29 02:38:38;;;;;;;8.60;5.60;;;;;;;9.62;91.11;101804.80;107485;1251;69953;-72
2022/04/29 02:41:07;;;;;;;7.30;5.90;;;;;;;9.65;90.30;101810.92;107188;1253;67963;-73
2022/04/29 02:43:37;;;;;;;9.10;6.50;;;;;;;9.61;90.77;101807.62;107312;1251;73121;-73
2022/04/29 02:46:06;;;;;;;7.90;6.00;;;;;;;9.61;90.80;101812.50;107178;1251;63316;-72
2022/04/29 02:48:36;;;;;;;8.10;6.10;;;;;;;9.58;90.92;101811.95;107049;1251;61886;-70
2022/04/29 02:51:05;;;;;;;8.90;6.90;;;;;;;9.55;91.15;101813.33;107240;1250;71447;-71
2022/04/29 02:53:34;;;;;;;8.70;6.40;;;;;;;9.54;91.47;101812.83;107100;1251;72522;-73
2022/04/29 02:56:03;;;;;;;8.10;6.30;;;;;;;9.55;91.25;101812.63;107095;1251;71295;-73
2022/04/29 02:59:14;;;;;;;8.50;6.70;;;;;;;9.53;91.63;101813.27;107299;1251;73738;-74
2022/04/29 03:01:44;;;;;;;8.80;6.10;;;;;;;9.52;91.95;101816.27;107170;1253;61325;-71
2022/04/29 03:04:14;;;;;;;9.20;6.10;;;;;;;9.50;92.16;101817.41;107456;1251;58980;-72
2022/04/29 03:06:44;;;;;;;7.70;5.40;;;;;;;9.52;91.62;101817.45;107639;1251;70965;-74
2022/04/29 03:09:12;;;;;;;10.50;6.40;;;;;;;9.54;91.34;101818.44;107757;1251;71484;-73
2022/04/29 03:11:41;;;;;;;9.70;6.60;;;;;;;9.56;90.94;101820.77;107622;1251;69263;-74
2022/04/29 03:14:10;;;;;;;8.30;6.10;;;;;;;9.53;91.34;101822.09;107417;1252;72886;-75
2022/04/29 03:16:39;;;;;;;8.00;6.70;;;;;;;9.55;91.34;101821.33;107440;1251;63111;-76
2022/04/29 03:19:08;;;;;;;8.80;5.60;;;;;;;9.55;91.25;101828.09;107289;1252;60415;-74
2022/04/29 03:21:37;;;;;;;8.30;5.70;;;;;;;9.58;90.77;101831.42;107216;1251;71102;-74
2022/04/29 03:24:07;;;;;;;9.10;6.60;;;;;;;9.59;90.66;101835.08;107271;1253;70511;-75
2022/04/29 03:26:37;;;;;;;8.60;6.40;;;;;;;9.56;90.96;101834.30;107230;1253;70074;-73
2022/04/29 03:29:06;;;;;;;9.30;6.50;;;;;;;9.57;91.01;101836.33;107083;1251;71247;-74
2022/04/29 03:31:35;;;;;;;15.60;9.00;;;;;;;9.57;91.10;101839.66;107144;1253;61173;-73
2022/04/29 03:34:54;;;;;;;7.50;5.60;;;;;;;9.59;90.56;101839.58;107019;1253;58992;-70
2022/04/29 03:37:23;;;;;;;8.00;5.70;;;;;;;9.59;90.53;101839.03;106807;1254;73636;-71
2022/04/29 03:39:53;;;;;;;7.60;5.90;;;;;;;9.57;90.45;101844.87;107183;1254;73018;-71
2022/04/29 03:42:21;;;;;;;8.80;6.30;;;;;;;9.57;90.66;101846.79;106864;1252;70143;-73
2022/04/29 03:44:51;;;;;;;8.50;5.60;;;;;;;9.57;90.81;101847.48;106991;1253;73094;-71
2022/04/29 03:47:22;;;;;;;7.40;5.80;;;;;;;9.60;90.22;101853.42;106835;1252;61481;-71
2022/04/29 03:50:43;;;;;;;7.40;5.60;;;;;;;9.60;90.28;101851.70;106875;1252;60822;-72
2022/04/29 03:53:15;;;;;;;7.50;5.30;;;;;;;9.60;90.35;101851.18;106863;1252;73932;-75
2022/04/29 03:55:52;;;;;;;8.60;5.70;;;;;;;9.59;90.47;101857.14;106909;1254;71208;-73
2022/04/29 03:58:22;;;;;;;8.60;6.10;;;;;;;9.59;90.60;101858.52;106799;1253;68179;-71
2022/04/29 04:00:53;;;;;;;8.50;6.60;;;;;;;9.64;90.13;101860.88;107002;1253;71238;-72
2022/04/29 04:03:40;;;;;;;9.10;6.10;;;;;;;9.63;90.47;101865.45;107078;1253;61385;-73
2022/04/29 04:09:00;;;;;;;7.30;5.70;;;;;;;9.65;90.31;101863.08;106829;1253;73068;-71
2022/04/29 04:11:29;;;;;;;7.20;5.30;;;;;;;9.65;90.46;101859.25;106783;1254;70778;-72
2022/04/29 04:13:58;;;;;;;7.80;5.40;;;;;;;9.67;90.12;101862.10;107005;1252;68853;-73
2022/04/29 04:16:48;;;;;;;7.80;5.10;;;;;;;9.66;90.14;101861.45;107065;1253;72108;-71
2022/04/29 04:19:17;;;;;;;8.10;5.60;;;;;;;9.69;90.16;101865.80;106915;1253;61142;-73
2022/04/29 04:21:46;;;;;;;7.60;5.80;;;;;;;9.69;90.54;101872.77;106891;1254;59756;-73
2022/04/29 04:24:15;;;;;;;7.70;5.20;;;;;;;9.72;90.63;101871.80;106886;1254;73277;-73
2022/04/29 04:26:44;;;;;;;8.40;6.40;;;;;;;9.69;90.45;101875.40;106849;1253;71940;-72
2022/04/29 04:29:18;;;;;;;8.60;5.70;;;;;;;9.72;90.31;101875.23;107039;1252;69484;-72
2022/04/29 04:31:47;;;;;;;8.00;5.70;;;;;;;9.75;89.81;101876.34;106920;1253;71226;-71
2022/04/29 04:37:07;;;;;;;8.70;5.10;;;;;;;9.72;90.11;101879.23;106871;1254;59165;-72
2022/04/29 04:39:36;;;;;;;7.40;5.20;;;;;;;9.70;90.72;101882.15;106834;1252;70956;-72
2022/04/29 04:42:11;;;;;;;7.00;5.10;;;;;;;9.74;90.49;101883.55;106838;1253;70820;-73
2022/04/29 04:44:47;;;;;;;8.10;5.40;;;;;;;9.73;90.53;101884.25;106751;1254;68437;-72
2022/04/29 04:47:17;;;;;;;7.60;5.80;;;;;;;9.77;90.07;101884.55;106658;1254;73612;-71
2022/04/29 04:50:33;;;;;;;9.30;5.80;;;;;;;9.79;89.72;101885.48;106793;1252;63026;-73
2022/04/29 04:53:02;;;;;;;7.60;5.30;;;;;;;9.82;89.57;101884.48;106924;1251;61364;-72
2022/04/29 04:55:31;;;;;;;7.30;5.40;;;;;;;9.84;89.35;101889.12;106859;1251;74181;-72
2022/04/29 04:58:00;;;;;;;6.60;4.80;;;;;;;9.82;89.48;101889.52;106997;1251;71193;-72
2022/04/29 05:00:29;;;;;;;9.20;4.60;;;;;;;9.79;90.05;101893.35;106918;1252;67247;-71
2022/04/29 05:03:11;;;;;;;6.40;4.80;;;;;;;9.84;90.23;101893.10;106939;1252;73240;-71
2022/04/29 05:06:02;;;;;;;5.40;4.40;;;;;;;9.91;89.63;101893.26;106988;1253;60084;-73
2022/04/29 05:08:31;;;;;;;8.30;4.40;;;;;;;9.93;89.34;101893.66;106885;1253;59769;-72
2022/04/29 05:11:00;;;;;;;9.30;5.10;;;;;;;9.89;89.57;101891.09;106869;1253;72770;-75
2022/04/29 05:13:29;;;;;;;8.30;5.80;;;;;;;9.96;89.13;101892.29;106980;1254;70450;-72
2022/04/29 05:15:58;;;;;;;15.00;8.00;;;;;;;9.99;89.49;101894.27;106984;1252;67959;-73
2022/04/29 05:18:32;;;;;;;9.40;6.20;;;;;;;9.91;89.42;101890.48;107133;1252;73983;-72
2022/04/29 05:21:10;;;;;;;7.70;4.60;;;;;;;10.01;89.10;101892.92;106940;1253;61032;-74
2022/04/29 05:23:39;;;;;;;8.30;4.60;;;;;;;10.02;89.11;101894.97;107093;1253;60332;-71
2022/04/29 05:26:52;;;;;;;7.40;5.10;;;;;;;9.97;90.15;101896.77;107040;1251;75265;-76
2022/04/29 05:29:39;;;;;;;6.50;4.90;;;;;;;10.00;89.68;101895.58;107166;1251;69943;-72
2022/04/29 05:32:31;;;;;;;5.50;4.50;;;;;;;10.09;88.89;101896.52;107044;1251;69787;-74
2022/04/29 05:35:29;;;;;;;7.00;4.40;;;;;;;10.15;88.71;101901.27;106990;1251;73794;-74
2022/04/29 05:38:17;;;;;;;5.80;4.40;;;;;;;10.16;88.55;101897.73;107795;1250;63856;-76
2022/04/29 05:43:34;;;;;;;5.60;3.90;;;;;;;10.29;88.08;101901.25;108074;1250;73334;-78
2022/04/29 05:46:03;;;;;;;5.70;4.10;;;;;;;10.34;87.86;101903.94;107511;1251;71962;-74
2022/04/29 05:48:32;;;;;;;6.30;4.20;;;;;;;10.42;87.63;101905.28;106850;1254;68408;-73
2022/04/29 05:51:01;;;;;;;6.30;4.10;;;;;;;10.45;87.19;101904.76;106967;1253;71333;-74
2022/04/29 05:53:30;;;;;;;4.70;3.70;;;;;;;10.49;87.23;101906.10;107039;1252;60501;-74
2022/04/29 05:56:04;;;;;;;5.80;4.00;;;;;;;10.58;86.88;101903.20;107275;1251;60205;-73
2022/04/29 05:58:33;;;;;;;4.00;3.30;;;;;;;10.53;87.16;101907.63;107003;1253;74201;-73
2022/04/29 06:01:42;;;;;;;5.20;3.40;;;;;;;10.69;86.38;101912.89;106900;1251;72881;-73
2022/04/29 06:04:13;;;;;;;4.90;3.40;;;;;;;10.73;86.04;101915.98;107149;1251;70019;-71
2022/04/29 06:06:42;;;;;;;6.90;3.70;;;;;;;10.70;85.90;101917.88;107007;1252;75362;-75
2022/04/29 06:09:11;;;;;;;5.00;4.20;;;;;;;10.74;86.00;101916.99;107201;1252;62671;-75
2022/04/29 06:11:41;;;;;;;5.00;3.80;;;;;;;10.80;86.20;101921.15;107291;1250;59349;-76
2022/04/29 06:14:11;;;;;;;3.70;2.80;;;;;;;10.91;85.55;101920.60;107136;1253;74542;-75
2022/04/29 06:16:57;;;;;;;4.80;3.40;;;;;;;10.89;85.06;101924.34;107095;1251;72985;-75
2022/04/29 06:19:45;;;;;;;4.50;3.20;;;;;;;10.99;84.97;101927.14;107006;1251;69281;-76
2022/04/29 06:23:10;;;;;;;6.20;3.60;;;;;;;10.92;85.33;101927.31;106853;1257;72843;-78
2022/04/29 06:25:39;;;;;;;5.50;3.20;;;;;;;10.97;84.83;101930.36;106774;1253;62778;-73
2022/04/29 06:28:08;;;;;;;5.20;3.90;;;;;;;10.84;85.81;101933.17;106975;1251;59379;-71
2022/04/29 06:30:38;;;;;;;4.90;3.30;;;;;;;10.89;85.46;101936.73;107070;1251;72638;-73
2022/04/29 06:33:38;;;;;;;5.40;3.70;;;;;;;10.92;85.39;101939.01;106939;1251;71265;-75
2022/04/29 06:36:11;;;;;;;5.90;3.40;;;;;;;10.79;85.52;101926.96;107051;1251;70618;-75
2022/04/29 06:38:41;;;;;;;6.70;3.50;;;;;;;10.85;85.35;101939.22;107132;1252;72650;-76
2022/04/29 06:41:28;;;;;;;6.20;3.70;;;;;;;10.89;84.95;101942.49;107263;1250;63117;-76
2022/04/29 06:44:03;;;;;;;7.20;4.10;;;;;;;10.80;85.39;101942.61;107412;1251;61956;-78
2022/04/29 06:47:34;;;;;;;6.40;3.90;;;;;;;10.73;85.54;101947.20;107196;1251;74326;-75
2022/04/29 06:50:51;;;;;;;6.90;4.30;;;;;;;10.65;85.38;101954.75;107102;1252;71705;-77
2022/04/29 06:53:19;;;;;;;6.50;3.80;;;;;;;10.56;85.59;101950.86;107405;1251;70172;-76
2022/04/29 06:55:48;;;;;;;8.00;4.30;;;;;;;10.35;87.01;101954.04;107120;1252;72486;-76
2022/04/29 06:58:17;;;;;;;5.80;4.30;;;;;;;10.39;87.28;101956.30;107249;1251;60748;-76
2022/04/29 07:00:47;;;;;;;6.30;4.10;;;;;;;10.42;86.80;101959.64;107193;1251;61068;-77
2022/04/29 07:03:16;;;;;;;6.10;4.00;;;;;;;10.40;87.00;101960.63;107278;1251;73116;-77
2022/04/29 07:05:45;;;;;;;5.20;4.20;;;;;;;10.35;87.50;101961.04;107053;1251;72231;-75
2022/04/29 07:12:09;;;;;;;8.60;6.20;;;;;;;10.44;86.56;101964.59;107677;1251;71654;-74
2022/04/29 07:15:00;;;;;;;6.10;4.20;;;;;;;10.42;86.89;101963.83;106641;1261;61919;-77
2022/04/29 07:17:30;;;;;;;7.30;5.00;;;;;;;10.46;86.88;101967.61;106719;1259;59758;-76
2022/04/29 07:20:14;;;;;;;8.10;4.30;;;;;;;10.51;86.54;101967.34;107002;1258;73765;-82
2022/04/29 07:22:46;;;;;;;5.80;4.60;;;;;;;10.49;86.43;101969.52;107337;1258;72093;-74
2022/04/29 07:25:15;;;;;;;6.70;4.60;;;;;;;10.54;86.46;101970.66;106219;1259;70000;-72
2022/04/29 07:27:44;;;;;;;6.30;4.20;;;;;;;10.59;86.21;101968.98;106347;1259;72407;-73
2022/04/29 07:30:14;;;;;;;5.90;4.40;;;;;;;10.65;86.21;101975.29;106529;1259;61200;-72
2022/04/29 07:32:47;;;;;;;5.80;4.20;;;;;;;10.68;85.91;101977.05;106550;1260;60318;-72
2022/04/29 07:41:45;;;;;;;5.50;4.10;;;;;;;10.72;86.03;101982.09;106415;1261;70385;-73
2022/04/29 07:44:16;;;;;;;7.70;4.70;;;;;;;10.71;86.17;101985.79;106226;1260;73225;-77
2022/04/29 07:46:49;;;;;;;5.50;4.30;;;;;;;10.73;85.81;101988.98;106352;1260;62304;-75
2022/04/29 07:49:35;;;;;;;6.00;4.20;;;;;;;10.90;85.18;101991.96;106334;1260;61629;-73
2022/04/29 07:52:06;;;;;;;6.20;4.10;;;;;;;10.96;85.33;101992.13;106243;1261;72435;-77
2022/04/29 07:54:38;;;;;;;5.40;3.90;;;;;;;10.98;85.20;101990.12;107771;1260;68629;-76
2022/04/29 07:57:08;;;;;;;6.20;4.20;;;;;;;10.95;85.31;101990.77;107210;1260;69960;-76
2022/04/29 07:59:37;;;;;;;6.40;4.00;;;;;;;11.00;85.83;101987.36;106364;1261;71977;-76
2022/04/29 08:02:25;;;;;;;5.20;3.80;;;;;;;11.07;84.73;101985.11;106199;1261;64426;-75
2022/04/29 08:04:55;;;;;;;5.00;3.40;;;;;;;11.15;84.62;101982.71;106173;1261;60936;-76
2022/04/29 08:07:24;;;;;;;6.00;3.90;;;;;;;11.15;84.30;101986.36;106181;1261;74240;-73
2022/04/29 08:09:52;;;;;;;6.20;3.80;;;;;;;11.10;84.32;101984.59;106300;1260;72670;-75
2022/04/29 08:12:21;;;;;;;6.40;4.40;;;;;;;10.98;84.72;101989.06;106377;1261;71072;-76
2022/04/29 08:15:09;;;;;;;6.30;4.40;;;;;;;11.06;84.67;101988.95;106841;1260;73662;-76
2022/04/29 08:17:53;;;;;;;6.50;4.10;;;;;;;11.01;84.86;101986.12;106535;1259;60561;-77
2022/04/29 08:20:22;;;;;;;5.20;4.00;;;;;;;10.99;85.06;101984.83;106444;1262;59650;-76
2022/04/29 08:22:52;;;;;;;6.90;4.10;;;;;;;10.98;85.11;101986.62;106241;1261;71777;-78
2022/04/29 08:25:23;;;;;;;5.40;4.10;;;;;;;11.01;85.18;101984.90;106413;1259;71576;-74
2022/04/29 08:27:52;;;;;;;5.40;4.20;;;;;;;11.13;84.78;101985.13;106383;1261;68338;-77
2022/04/29 08:30:22;;;;;;;4.70;3.90;;;;;;;11.03;84.72;101981.98;106410;1261;72982;-75
2022/04/29 08:32:51;;;;;;;6.60;3.80;;;;;;;11.15;84.09;101986.59;106455;1260;61460;-76
2022/04/29 08:35:42;;;;;;;4.40;3.90;;;;;;;11.17;83.82;101979.29;106337;1261;58996;-77
2022/04/29 08:38:11;;;;;;;5.40;4.10;;;;;;;11.21;83.44;101981.20;106411;1259;71815;-75
2022/04/29 08:40:49;;;;;;;6.00;4.30;;;;;;;11.19;83.09;101977.96;106382;1261;71145;-76
2022/04/29 08:43:25;;;;;;;5.30;3.70;;;;;;;11.15;82.89;101979.77;106434;1260;69486;-77
2022/04/29 08:45:56;;;;;;;5.60;3.90;;;;;;;11.22;83.42;101983.20;106334;1261;73424;-76
2022/04/29 08:48:45;;;;;;;5.00;3.50;;;;;;;11.35;82.05;101981.11;106316;1260;61773;-75
2022/04/29 08:51:14;;;;;;;6.30;4.10;;;;;;;11.39;82.31;101980.88;106290;1261;59829;-76
2022/04/29 08:53:43;;;;;;;6.90;4.10;;;;;;;11.46;81.49;101981.05;106435;1261;72198;-78
2022/04/29 08:59:03;;;;;;;5.10;4.00;;;;;;;11.47;81.41;101983.05;106432;1261;69954;-79
2022/04/29 09:01:32;;;;;;;5.80;4.10;;;;;;;11.63;81.05;101979.92;106575;1261;73401;-76
2022/04/29 09:04:02;;;;;;;6.10;3.60;;;;;;;11.55;81.17;101979.11;106324;1261;62310;-76
2022/04/29 09:06:31;;;;;;;4.60;3.30;;;;;;;11.69;80.21;101982.86;106511;1260;59733;-76
2022/04/29 09:09:09;;;;;;;5.30;3.60;;;;;;;11.58;80.14;101973.88;106619;1260;72802;-75
2022/04/29 09:11:38;;;;;;;5.90;4.00;;;;;;;11.70;80.11;101979.84;106420;1260;71131;-75
2022/04/29 09:14:25;;;;;;;8.40;6.50;;;;;;;11.63;80.43;101980.96;106426;1260;69951;-74
2022/04/29 09:16:54;;;;;;;6.10;4.70;;;;;;;11.59;81.22;101980.98;106474;1261;72545;-75
2022/04/29 09:19:36;;;;;;;5.30;3.90;;;;;;;11.67;80.61;101985.41;106364;1262;60528;-75
2022/04/29 09:22:09;;;;;;;7.10;4.20;;;;;;;11.65;80.38;101982.54;106693;1260;61371;-76
2022/04/29 09:25:08;;;;;;;5.50;4.10;;;;;;;11.60;80.50;101980.90;106526;1261;73300;-76
2022/04/29 09:27:56;;;;;;;5.40;4.00;;;;;;;11.61;81.21;101981.91;106561;1260;72648;-75
2022/04/29 09:30:38;;;;;;;6.60;4.10;;;;;;;11.66;80.99;101981.98;106418;1260;71936;-80
2022/04/29 09:33:27;;;;;;;6.60;4.40;;;;;;;11.80;79.89;101982.29;106562;1260;74027;-78
2022/04/29 09:36:25;;;;;;;6.00;4.30;;;;;;;11.87;79.25;101976.80;106349;1261;62949;-75
2022/04/29 09:41:58;;;;;;;5.20;3.10;;;;;;;12.31;77.66;101980.48;106533;1260;71454;-78
2022/04/29 09:44:32;;;;;;;4.20;3.10;;;;;;;12.58;77.20;101979.23;106646;1260;70514;-76
2022/04/29 09:47:15;;;;;;;4.00;3.10;;;;;;;12.66;76.39;101978.02;106477;1261;70608;-78
2022/04/29 09:49:59;;;;;;;4.80;3.20;;;;;;;12.69;76.08;101972.60;107150;1260;73103;-79
2022/04/29 09:52:30;;;;;;;6.30;3.00;;;;;;;12.59;75.94;101972.69;107028;1260;62864;-77
2022/04/29 09:55:17;;;;;;;4.40;3.10;;;;;;;12.40;76.33;101971.76;106722;1261;60915;-77
2022/04/29 09:57:56;;;;;;;4.90;3.30;;;;;;;12.49;76.03;101970.36;106359;1261;72322;-76
2022/04/29 10:00:26;;;;;;;4.30;2.90;;;;;;;12.50;77.05;101971.85;106522;1260;71096;-78
2022/04/29 10:02:56;;;;;;;4.90;2.90;;;;;;;12.65;76.65;101973.20;106758;1260;71058;-79
2022/04/29 10:05:29;;;;;;;3.80;2.80;;;;;;;12.81;76.30;101968.56;106306;1260;71751;-77
2022/04/29 10:08:06;;;;;;;4.20;3.20;;;;;;;12.80;75.53;101968.09;106123;1261;61293;-78
2022/04/29 10:10:35;;;;;;;4.70;3.10;;;;;;;12.65;75.29;101968.86;106146;1260;61164;-75
2022/04/29 10:13:07;;;;;;;4.20;3.40;;;;;;;12.52;75.95;101972.41;106146;1261;73315;-75
2022/04/29 10:15:42;;;;;;;5.10;3.20;;;;;;;12.32;76.41;101975.52;106326;1260;71537;-77
2022/04/29 10:22:52;;;;;;;6.00;3.70;;;;;;;12.22;77.52;101974.77;106590;1259;72024;-76
2022/04/29 10:25:25;;;;;;;4.00;2.80;;;;;;;12.10;78.14;101978.95;106843;1259;60431;-76
2022/04/29 10:27:55;;;;;;;4.70;3.20;;;;;;;12.07;77.78;101977.39;106652;1259;59928;-76
2022/04/29 10:30:32;;;;;;;4.40;2.90;;;;;;;11.87;78.44;101974.02;106688;1259;73671;-76
2022/04/29 10:33:09;;;;;;;4.40;2.90;;;;;;;11.77;79.16;101971.42;106389;1261;70990;-76
2022/04/29 10:38:16;;;;;;;4.50;2.90;;;;;;;11.56;80.12;101969.30;106538;1259;72218;-75
2022/04/29 10:40:49;;;;;;;4.40;3.00;;;;;;;11.64;79.38;101970.76;106471;1261;60588;-76
2022/04/29 10:43:20;;;;;;;3.80;2.80;;;;;;;11.54;79.81;101970.60;106544;1259;61321;-75
2022/04/29 10:46:05;;;;;;;4.10;3.00;;;;;;;11.62;79.47;101968.42;106323;1260;73400;-77
2022/04/29 10:48:45;;;;;;;3.90;2.90;;;;;;;11.64;79.68;101968.30;106541;1258;70375;-76
2022/04/29 10:52:25;;;;;;;3.70;2.80;;;;;;;11.63;79.27;101966.23;106457;1259;68751;-76
2022/04/29 10:55:06;;;;;;;4.30;2.90;;;;;;;11.49;80.14;101963.23;106483;1259;71311;-75
2022/04/29 10:57:43;;;;;;;4.90;3.50;;;;;;;11.50;79.89;101967.04;106505;1259;63399;-76
2022/04/29 11:00:22;;;;;;;5.40;3.20;;;;;;;11.17;80.94;101972.69;106510;1261;61126;-75
2022/04/29 11:02:55;;;;;;;4.80;3.40;;;;;;;11.31;80.27;101969.98;106507;1259;72776;-74
2022/04/29 11:05:39;;;;;;;5.00;3.90;;;;;;;11.32;79.93;101966.81;106540;1259;70469;-76
2022/04/29 11:08:11;;;;;;;6.10;3.70;;;;;;;11.32;80.26;101971.70;106573;1259;69147;-75
2022/04/29 11:10:59;;;;;;;5.30;4.20;;;;;;;11.28;80.77;101971.04;106524;1259;73202;-76
2022/04/29 11:13:44;;;;;;;6.00;4.00;;;;;;;11.24;81.29;101971.25;106442;1261;60839;-76
2022/04/29 11:17:14;;;;;;;5.80;4.10;;;;;;;11.34;80.47;101965.28;106547;1260;59931;-77
2022/04/29 11:19:47;;;;;;;7.30;4.90;;;;;;;11.33;80.40;101968.33;106411;1259;73675;-77
2022/04/29 11:25:10;;;;;;;6.00;4.00;;;;;;;11.34;80.81;101961.45;106480;1261;70146;-76
2022/04/29 11:27:42;;;;;;;5.40;4.10;;;;;;;11.52;80.35;101959.23;106586;1259;72520;-75
2022/04/29 11:30:19;;;;;;;6.50;4.40;;;;;;;11.64;80.29;101960.65;106450;1260;62356;-71
2022/04/29 11:32:58;;;;;;;5.30;3.80;;;;;;;11.72;78.91;101957.55;106274;1259;59386;-70
2022/04/29 11:35:28;;;;;;;5.30;4.00;;;;;;;11.93;78.33;101954.64;106423;1259;69968;-70
2022/04/29 11:37:59;;;;;;;6.20;4.20;;;;;;;11.89;77.65;101951.57;106285;1259;72620;-73
2022/04/29 11:40:29;;;;;;;6.30;4.10;;;;;;;11.97;77.67;101944.27;106365;1260;69168;-70
2022/04/29 11:42:58;;;;;;;6.80;3.30;;;;;;;12.07;76.77;101940.86;106185;1259;72098;-70
2022/04/29 11:45:27;;;;;;;6.90;4.20;;;;;;;11.96;76.86;101935.60;106334;1259;61878;-72
2022/04/29 11:48:08;;;;;;;5.50;3.70;;;;;;;12.24;76.52;101933.38;106489;1261;59318;-76
2022/04/29 11:50:38;;;;;;;5.20;4.00;;;;;;;12.47;75.91;101929.22;106444;1261;71789;-76
2022/04/29 11:53:09;;;;;;;5.90;3.50;;;;;;;12.81;74.66;101927.31;106472;1259;72289;-76
2022/04/29 11:55:38;;;;;;;5.00;2.50;;;;;;;13.08;73.61;101927.34;106480;1259;70970;-76
2022/04/29 11:58:09;;;;;;;3.00;2.30;;;;;;;13.29;72.61;101927.95;106561;1259;73836;-77
2022/04/29 12:00:38;;;;;;;4.30;2.90;;;;;;;13.35;71.79;101926.52;106396;1261;59433;-77
2022/04/29 12:03:07;;;;;;;3.90;2.80;;;;;;;13.07;72.55;101922.54;106548;1260;60548;-76
2022/04/29 12:05:37;;;;;;;4.30;2.80;;;;;;;13.11;72.16;101919.45;106546;1259;74209;-75
2022/04/29 12:08:10;;;;;;;3.00;2.40;;;;;;;13.31;71.54;101912.39;106552;1260;71232;-75
2022/04/29 12:10:47;;;;;;;4.50;2.60;;;;;;;13.28;71.78;101908.61;106431;1261;70503;-78
2022/04/29 12:13:18;;;;;;;6.30;2.70;;;;;;;13.58;70.98;101903.61;106626;1260;72680;-78
2022/04/29 12:15:56;;;;;;;3.60;2.50;;;;;;;13.95;70.42;101897.68;106661;1259;61405;-78
2022/04/29 12:18:44;;;;;;;3.60;2.10;;;;;;;14.29;68.14;101896.56;106601;1259;59356;-76
2022/04/29 12:21:25;;;;;;;5.40;2.40;;;;;;;14.38;67.63;101891.39;106730;1260;71130;-76
2022/04/29 12:23:54;;;;;;;3.60;2.10;;;;;;;14.25;67.95;101891.59;106473;1261;70922;-76
2022/04/29 12:26:23;;;;;;;3.40;2.10;;;;;;;14.61;66.00;101890.34;106606;1261;71110;-77
2022/04/29 12:28:56;;;;;;;3.70;1.90;;;;;;;14.41;67.01;101885.26;106566;1259;72343;-79
2022/04/29 12:37:20;;;;;;;2.20;1.70;;;;;;;14.93;65.38;101878.25;107095;1260;73288;-77